createdAt,value
2023-03-30T00:01:15.381Z,6.60
2023-03-30T00:03:44.468Z,6.60
2023-03-30T00:06:21.361Z,6.50
2023-03-30T00:08:49.749Z,6.50
2023-03-30T00:11:18.504Z,6.50
2023-03-30T00:13:50.872Z,6.50
2023-03-30T00:16:20.873Z,6.40
2023-03-30T00:18:50.703Z,6.30
2023-03-30T00:21:21.516Z,6.30
2023-03-30T00:23:50.441Z,6.30
2023-03-30T00:26:19.114Z,6.30
2023-03-30T00:28:47.778Z,6.20
2023-03-30T00:31:17.041Z,6.30
2023-03-30T00:33:47.320Z,6.30
2023-03-30T00:36:16.212Z,6.20
2023-03-30T00:38:48.576Z,6.20
2023-03-30T00:41:17.933Z,6.30
2023-03-30T00:44:01.483Z,6.30
2023-03-30T00:46:31.547Z,6.20
2023-03-30T00:49:05.410Z,6.30
2023-03-30T00:51:35.781Z,6.30
2023-03-30T00:54:10.024Z,6.20
2023-03-30T00:56:38.396Z,6.20
2023-03-30T00:59:07.587Z,6.20
2023-03-30T01:01:39.412Z,6.20
2023-03-30T01:04:10.179Z,6.20
2023-03-30T01:06:40.816Z,6.10
2023-03-30T01:09:12.350Z,6.10
2023-03-30T01:11:41.663Z,6.10
2023-03-30T01:14:12.522Z,6.10
2023-03-30T01:16:52.657Z,6.20
2023-03-30T01:19:52.673Z,6.10
2023-03-30T01:22:56.138Z,6.20
2023-03-30T01:26:09.400Z,6.20
2023-03-30T01:28:47.086Z,6.20
2023-03-30T01:31:42.161Z,6.20
2023-03-30T01:34:46.325Z,6.20
2023-03-30T01:37:56.265Z,6.20
2023-03-30T01:40:32.445Z,6.20
2023-03-30T01:43:08.889Z,6.30
2023-03-30T01:45:45.666Z,6.30
2023-03-30T01:48:19.611Z,6.30
2023-03-30T01:50:56.023Z,6.40
2023-03-30T01:53:30.326Z,6.40
2023-03-30T01:56:04.883Z,6.40
2023-03-30T01:58:39.434Z,6.40
2023-03-30T02:01:09.390Z,6.50
2023-03-30T02:03:41.658Z,6.50
2023-03-30T02:06:25.986Z,6.50
2023-03-30T02:08:56.047Z,6.50
2023-03-30T02:11:30.788Z,6.50
2023-03-30T02:14:00.660Z,6.50
2023-03-30T02:16:35.728Z,6.50
2023-03-30T02:19:04.572Z,6.40
2023-03-30T02:21:33.296Z,6.40
2023-03-30T02:24:03.833Z,6.30
2023-03-30T02:26:35.354Z,6.30
2023-03-30T02:29:04.250Z,6.20
2023-03-30T02:31:32.739Z,6.20
2023-03-30T02:34:15.877Z,6.20
2023-03-30T02:37:10.168Z,6.10
2023-03-30T02:39:51.776Z,6.00
2023-03-30T02:42:41.695Z,5.90
2023-03-30T02:45:21.863Z,5.80
2023-03-30T02:48:04.219Z,5.80
2023-03-30T02:50:37.935Z,5.80
2023-03-30T02:53:15.068Z,5.90
2023-03-30T02:55:52.926Z,5.90
2023-03-30T02:58:32.151Z,5.80
2023-03-30T03:01:05.780Z,5.80
2023-03-30T03:03:37.880Z,5.90
2023-03-30T03:06:09.737Z,5.90
2023-03-30T03:08:43.830Z,5.90
2023-03-30T03:11:12.622Z,5.90
2023-03-30T03:13:42.958Z,5.90
2023-03-30T03:16:12.583Z,5.80
2023-03-30T03:18:42.227Z,5.80
2023-03-30T03:21:11.667Z,5.80
2023-03-30T03:23:40.188Z,5.80
2023-03-30T03:26:09.099Z,5.90
2023-03-30T03:28:37.891Z,5.80
2023-03-30T03:31:08.213Z,5.90
2023-03-30T03:33:36.690Z,5.80
2023-03-30T03:36:07.470Z,5.90
2023-03-30T03:38:36.519Z,5.90
2023-03-30T03:41:05.218Z,5.90
2023-03-30T03:43:33.875Z,5.90
2023-03-30T03:46:02.072Z,5.90
2023-03-30T03:48:31.926Z,5.90
2023-03-30T03:51:01.121Z,5.90
2023-03-30T03:53:31.716Z,5.90
2023-03-30T03:56:02.414Z,6.00
2023-03-30T03:58:31.970Z,5.90
2023-03-30T04:01:01.347Z,6.00
2023-03-30T04:03:31.811Z,6.00
2023-03-30T04:06:02.456Z,6.00
2023-03-30T04:08:31.123Z,6.10
2023-03-30T04:11:10.275Z,6.10
2023-03-30T04:13:38.731Z,6.00
2023-03-30T04:16:10.256Z,6.00
2023-03-30T04:18:41.765Z,5.90
2023-03-30T04:21:13.341Z,5.90
2023-03-30T04:23:45.985Z,5.90
2023-03-30T04:26:16.044Z,5.80
2023-03-30T04:28:47.177Z,5.70
2023-03-30T04:31:15.629Z,5.60
2023-03-30T04:33:51.924Z,5.50
2023-03-30T04:36:21.641Z,5.50
2023-03-30T04:38:58.707Z,5.50
2023-03-30T04:41:33.623Z,5.50
2023-03-30T04:44:06.493Z,5.50
2023-03-30T04:46:36.233Z,5.50
2023-03-30T04:49:06.691Z,5.40
2023-03-30T04:51:35.126Z,5.40
2023-03-30T04:54:03.704Z,5.40
2023-03-30T04:56:32.076Z,5.40
2023-03-30T04:59:00.689Z,5.40
2023-03-30T05:01:29.298Z,5.40
2023-03-30T05:03:58.024Z,5.40
2023-03-30T05:06:30.047Z,5.40
2023-03-30T05:08:58.644Z,5.50
2023-03-30T05:11:26.940Z,5.50
2023-03-30T05:13:55.468Z,5.50
2023-03-30T05:16:23.904Z,5.50
2023-03-30T05:18:52.307Z,5.50
2023-03-30T05:21:20.698Z,5.50
2023-03-30T05:23:50.588Z,5.50
2023-03-30T05:26:19.045Z,5.60
2023-03-30T05:28:48.045Z,5.50
2023-03-30T05:31:16.786Z,5.60
2023-03-30T05:33:45.257Z,5.60
2023-03-30T05:36:14.303Z,5.60
2023-03-30T05:38:42.830Z,5.60
2023-03-30T05:41:12.789Z,5.60
2023-03-30T05:43:41.132Z,5.60
2023-03-30T05:46:09.602Z,5.60
2023-03-30T05:48:37.934Z,5.60
2023-03-30T05:51:06.778Z,5.70
2023-03-30T05:53:35.335Z,5.70
2023-03-30T05:56:03.606Z,5.70
2023-03-30T05:58:33.587Z,5.70
2023-03-30T06:01:02.250Z,5.70
2023-03-30T06:03:31.038Z,5.80
2023-03-30T06:06:01.584Z,5.80
2023-03-30T06:08:29.949Z,5.80
2023-03-30T06:10:58.667Z,5.90
2023-03-30T06:13:28.040Z,6.00
2023-03-30T06:15:58.749Z,6.00
2023-03-30T06:18:28.692Z,6.00
2023-03-30T06:20:57.513Z,6.10
2023-03-30T06:23:26.488Z,6.20
2023-03-30T06:25:57.846Z,6.30
2023-03-30T06:28:26.497Z,6.30
2023-03-30T06:30:55.185Z,6.40
2023-03-30T06:33:26.204Z,6.40
2023-03-30T06:35:55.273Z,6.40
2023-03-30T06:38:24.758Z,6.40
2023-03-30T06:40:53.391Z,6.50
2023-03-30T06:43:23.641Z,6.50
2023-03-30T06:45:53.224Z,6.60
2023-03-30T06:48:24.001Z,6.60
2023-03-30T06:50:54.528Z,6.60
2023-03-30T06:53:24.109Z,6.70
2023-03-30T06:55:53.732Z,6.70
2023-03-30T06:58:22.274Z,6.70
2023-03-30T07:00:50.839Z,6.70
2023-03-30T07:03:21.769Z,6.70
2023-03-30T07:05:51.130Z,6.80
2023-03-30T07:08:21.441Z,6.80
2023-03-30T07:10:50.210Z,6.90
2023-03-30T07:13:19.097Z,6.90
2023-03-30T07:15:48.822Z,6.90
2023-03-30T07:18:17.817Z,7.00
2023-03-30T07:20:47.095Z,7.00
2023-03-30T07:23:16.784Z,7.00
2023-03-30T07:25:47.783Z,7.00
2023-03-30T07:28:16.898Z,7.10
2023-03-30T07:30:45.784Z,7.10
2023-03-30T07:33:14.910Z,7.10
2023-03-30T07:35:49.862Z,7.20
2023-03-30T07:38:19.653Z,7.10
2023-03-30T07:40:49.761Z,7.20
2023-03-30T07:43:18.155Z,7.20
2023-03-30T07:45:46.847Z,7.30
2023-03-30T07:48:15.424Z,7.30
2023-03-30T07:50:44.067Z,7.40
2023-03-30T07:53:13.164Z,7.50
2023-03-30T07:55:41.876Z,7.50
2023-03-30T07:58:12.066Z,7.60
2023-03-30T08:00:40.825Z,7.70
2023-03-30T08:03:10.142Z,7.80
2023-03-30T08:05:38.609Z,7.90
2023-03-30T08:08:08.102Z,8.00
2023-03-30T08:10:36.940Z,8.10
2023-03-30T08:13:05.389Z,8.30
2023-03-30T08:15:35.290Z,8.40
2023-03-30T08:18:08.234Z,8.60
2023-03-30T08:20:39.031Z,8.70
2023-03-30T08:23:08.006Z,8.90
2023-03-30T08:25:36.920Z,8.90
2023-03-30T08:28:06.339Z,8.90
2023-03-30T08:30:36.743Z,9.00
2023-03-30T08:33:05.527Z,9.00
2023-03-30T08:35:34.297Z,9.00
2023-03-30T08:38:03.933Z,9.10
2023-03-30T08:40:32.573Z,9.20
2023-03-30T08:43:19.826Z,9.20
2023-03-30T08:45:50.575Z,9.40
2023-03-30T08:48:21.275Z,9.50
2023-03-30T08:50:55.629Z,9.60
2023-03-30T08:53:27.186Z,9.80
2023-03-30T08:55:58.993Z,9.90
2023-03-30T08:58:36.087Z,10.10
2023-03-30T09:01:15.099Z,10.30
2023-03-30T09:03:51.545Z,10.80
2023-03-30T09:06:29.171Z,11.30
2023-03-30T09:08:57.812Z,11.80
2023-03-30T09:11:34.299Z,12.30
2023-03-30T09:14:05.970Z,12.50
2023-03-30T09:16:44.818Z,12.70
2023-03-30T09:19:18.318Z,12.70
2023-03-30T09:21:47.683Z,12.30
2023-03-30T09:24:23.040Z,12.10
2023-03-30T09:26:56.446Z,11.90
2023-03-30T09:29:28.852Z,11.80
2023-03-30T09:32:11.914Z,11.60
2023-03-30T09:34:46.682Z,11.40
2023-03-30T09:37:18.854Z,11.30
2023-03-30T09:39:48.422Z,11.20
2023-03-30T09:42:25.860Z,11.20
2023-03-30T09:44:57.155Z,11.20
2023-03-30T09:47:31.887Z,11.10
2023-03-30T09:50:02.506Z,11.10
2023-03-30T09:52:37.207Z,11.00
2023-03-30T09:55:26.248Z,10.90
2023-03-30T09:57:55.622Z,11.00
2023-03-30T10:00:27.948Z,11.00
2023-03-30T10:02:59.567Z,10.90
2023-03-30T10:05:28.867Z,10.90
2023-03-30T10:07:58.901Z,10.90
2023-03-30T10:10:35.181Z,10.80
2023-03-30T10:13:07.729Z,10.90
2023-03-30T10:15:40.033Z,10.80
2023-03-30T10:18:25.257Z,10.90
2023-03-30T10:20:55.904Z,11.00
2023-03-30T10:23:33.596Z,10.90
2023-03-30T10:26:04.331Z,11.00
2023-03-30T10:28:36.565Z,11.10
2023-03-30T10:31:09.243Z,11.10
2023-03-30T10:33:45.413Z,11.20
2023-03-30T10:36:17.332Z,11.20
2023-03-30T10:38:46.637Z,11.30
2023-03-30T10:41:21.688Z,11.30
2023-03-30T10:43:51.107Z,11.30
2023-03-30T10:46:23.021Z,11.40
2023-03-30T10:49:06.079Z,11.40
2023-03-30T10:51:49.492Z,11.40
2023-03-30T10:54:27.409Z,11.40
2023-03-30T10:57:00.960Z,11.40
2023-03-30T10:59:48.065Z,11.40
2023-03-30T11:02:30.433Z,11.40
2023-03-30T11:05:09.964Z,11.30
2023-03-30T11:07:43.611Z,11.40
2023-03-30T11:10:18.339Z,11.40
2023-03-30T11:12:51.379Z,11.40
2023-03-30T11:15:26.654Z,11.30
2023-03-30T11:18:01.589Z,11.40
2023-03-30T11:20:35.195Z,11.40
2023-03-30T11:23:12.466Z,11.50
2023-03-30T11:25:48.906Z,11.50
2023-03-30T11:28:22.692Z,11.60
2023-03-30T11:30:56.243Z,11.60
2023-03-30T11:33:30.535Z,11.50
2023-03-30T11:36:05.588Z,11.40
2023-03-30T11:38:42.691Z,11.40
2023-03-30T11:41:16.084Z,11.40
2023-03-30T11:43:44.736Z,11.40
2023-03-30T11:46:22.168Z,11.40
2023-03-30T11:49:11.797Z,11.50
2023-03-30T11:51:57.735Z,11.50
2023-03-30T11:55:10.733Z,11.50
2023-03-30T11:57:46.220Z,11.40
2023-03-30T12:00:49.737Z,11.40
2023-03-30T12:03:38.089Z,11.40
2023-03-30T12:06:19.132Z,11.80
2023-03-30T12:09:20.367Z,12.10
2023-03-30T12:11:52.430Z,12.40
2023-03-30T12:14:42.901Z,12.80
2023-03-30T12:17:26.113Z,13.00
2023-03-30T12:20:00.194Z,13.10
2023-03-30T12:22:37.594Z,13.20
2023-03-30T12:25:20.488Z,13.20
2023-03-30T12:27:59.953Z,13.20
2023-03-30T12:30:29.934Z,13.30
2023-03-30T12:33:03.486Z,13.30
2023-03-30T12:35:58.193Z,13.30
2023-03-30T12:38:38.678Z,13.30
2023-03-30T12:41:18.663Z,13.40
2023-03-30T12:44:20.377Z,13.40
2023-03-30T12:46:58.640Z,13.30
2023-03-30T12:49:35.529Z,13.20
2023-03-30T12:52:13.875Z,13.10
2023-03-30T12:55:16.348Z,13.00
2023-03-30T12:57:59.160Z,12.90
2023-03-30T13:00:49.747Z,12.70
2023-03-30T13:03:32.987Z,12.40
2023-03-30T13:06:04.141Z,12.30
2023-03-30T13:08:36.832Z,12.00
2023-03-30T13:11:16.826Z,11.80
2023-03-30T13:13:58.200Z,11.60
2023-03-30T13:17:12.323Z,11.60
2023-03-30T13:20:03.721Z,11.70
2023-03-30T13:22:33.612Z,11.70
2023-03-30T13:25:07.240Z,11.50
2023-03-30T13:27:37.698Z,11.50
2023-03-30T13:30:14.912Z,11.40
2023-03-30T13:33:00.500Z,11.30
2023-03-30T13:35:56.473Z,11.20
2023-03-30T13:38:37.614Z,11.10
2023-03-30T13:41:19.770Z,11.10
2023-03-30T13:44:00.389Z,11.20
2023-03-30T13:46:36.244Z,11.00
2023-03-30T13:49:18.058Z,11.00
2023-03-30T13:51:47.864Z,11.00
2023-03-30T13:54:20.921Z,11.10
2023-03-30T13:56:53.299Z,11.10
2023-03-30T13:59:24.284Z,11.00
2023-03-30T14:01:56.997Z,11.00
2023-03-30T14:04:30.613Z,11.00
2023-03-30T14:06:59.651Z,11.10
2023-03-30T14:09:29.274Z,11.10
2023-03-30T14:12:00.745Z,11.10
2023-03-30T14:14:36.053Z,11.20
2023-03-30T14:17:16.319Z,11.20
2023-03-30T14:19:56.798Z,11.20
2023-03-30T14:22:30.089Z,11.10
2023-03-30T14:24:59.869Z,11.20
2023-03-30T14:27:35.258Z,11.20
2023-03-30T14:30:04.587Z,11.20
2023-03-30T14:32:34.723Z,11.20
2023-03-30T14:35:10.285Z,11.30
2023-03-30T14:37:38.714Z,11.30
2023-03-30T14:40:16.986Z,11.30
2023-03-30T14:42:47.256Z,11.40
2023-03-30T14:45:19.175Z,11.40
2023-03-30T14:47:50.348Z,11.50
2023-03-30T14:50:18.978Z,11.50
2023-03-30T14:52:48.533Z,11.60
2023-03-30T14:55:22.459Z,11.60
2023-03-30T14:57:51.676Z,11.70
2023-03-30T15:00:24.996Z,11.80
2023-03-30T15:03:02.904Z,11.80
2023-03-30T15:05:35.531Z,11.90
2023-03-30T15:08:04.641Z,11.90
2023-03-30T15:10:38.689Z,11.90
2023-03-30T15:13:09.022Z,11.80
2023-03-30T15:15:37.782Z,11.80
2023-03-30T15:18:08.717Z,11.90
2023-03-30T15:20:37.204Z,11.90
2023-03-30T15:23:05.888Z,11.80
2023-03-30T15:25:36.604Z,11.70
2023-03-30T15:28:07.505Z,11.60
2023-03-30T15:30:39.154Z,11.60
2023-03-30T15:33:22.134Z,11.60
2023-03-30T15:35:53.197Z,11.60
2023-03-30T15:38:31.359Z,11.50
2023-03-30T15:40:59.808Z,11.50
2023-03-30T15:43:30.422Z,11.40
2023-03-30T15:46:02.876Z,11.30
2023-03-30T15:48:43.347Z,11.30
2023-03-30T15:51:16.437Z,11.20
2023-03-30T15:53:51.651Z,11.20
2023-03-30T15:56:25.507Z,11.20
2023-03-30T15:58:53.981Z,11.20
2023-03-30T16:01:23.486Z,11.10
2023-03-30T16:03:56.645Z,11.10
2023-03-30T16:06:25.885Z,11.10
2023-03-30T16:08:54.181Z,11.00
2023-03-30T16:11:26.394Z,11.00
2023-03-30T16:13:55.366Z,11.00
2023-03-30T16:16:23.572Z,11.00
2023-03-30T16:18:54.813Z,11.00
2023-03-30T16:21:24.631Z,11.00
2023-03-30T16:23:53.221Z,11.10
2023-03-30T16:26:21.988Z,11.20
2023-03-30T16:28:53.371Z,11.30
2023-03-30T16:31:24.238Z,11.30
2023-03-30T16:33:57.457Z,11.30
2023-03-30T16:36:26.043Z,11.40
2023-03-30T16:38:57.301Z,11.50
2023-03-30T16:41:25.851Z,11.50
2023-03-30T16:43:54.396Z,11.60
2023-03-30T16:46:22.872Z,11.60
2023-03-30T16:48:51.277Z,11.60
2023-03-30T16:51:21.347Z,11.70
2023-03-30T16:53:49.778Z,11.80
2023-03-30T16:56:19.630Z,11.90
2023-03-30T16:58:48.404Z,12.00
2023-03-30T17:01:18.960Z,12.00
2023-03-30T17:03:48.204Z,12.00
2023-03-30T17:06:17.255Z,12.10
2023-03-30T17:08:47.072Z,12.20
2023-03-30T17:11:16.103Z,12.20
2023-03-30T17:13:46.737Z,12.20
2023-03-30T17:16:16.660Z,12.20
2023-03-30T17:18:44.936Z,12.30
2023-03-30T17:21:16.731Z,12.40
2023-03-30T17:23:48.230Z,12.40
2023-03-30T17:26:17.049Z,12.50
2023-03-30T17:28:46.245Z,12.50
2023-03-30T17:31:17.749Z,12.40
2023-03-30T17:33:46.699Z,12.50
2023-03-30T17:36:19.001Z,12.50
2023-03-30T17:38:49.583Z,12.40
2023-03-30T17:41:19.703Z,12.50
2023-03-30T17:43:49.420Z,12.50
2023-03-30T17:46:22.003Z,12.50
2023-03-30T17:48:51.319Z,12.50
2023-03-30T17:51:20.787Z,12.50
2023-03-30T17:53:50.899Z,12.60
2023-03-30T17:56:19.414Z,12.70
2023-03-30T17:58:49.310Z,12.60
2023-03-30T18:01:17.783Z,12.70
2023-03-30T18:03:46.191Z,12.70
2023-03-30T18:06:14.549Z,12.60
2023-03-30T18:08:44.310Z,12.70
2023-03-30T18:11:14.844Z,12.60
2023-03-30T18:13:43.114Z,12.60
2023-03-30T18:16:13.560Z,12.60
2023-03-30T18:18:45.299Z,12.60
2023-03-30T18:21:13.565Z,12.60
2023-03-30T18:23:42.305Z,12.70
2023-03-30T18:26:14.505Z,12.70
2023-03-30T18:28:44.514Z,12.70
2023-03-30T18:31:13.088Z,12.70
2023-03-30T18:33:41.705Z,12.70
2023-03-30T18:36:13.299Z,12.60
2023-03-30T18:38:42.348Z,12.60
2023-03-30T18:41:13.886Z,12.60
2023-03-30T18:43:42.246Z,12.50
2023-03-30T18:46:13.038Z,12.50
2023-03-30T18:48:41.516Z,12.40
2023-03-30T18:51:12.298Z,12.40
2023-03-30T18:53:40.539Z,12.30
2023-03-30T18:56:15.074Z,12.40
2023-03-30T18:58:43.427Z,12.50
2023-03-30T19:01:13.839Z,12.40
2023-03-30T19:03:42.480Z,12.40
2023-03-30T19:06:14.045Z,12.40
2023-03-30T19:08:43.659Z,12.40
2023-03-30T19:11:19.597Z,12.40
2023-03-30T19:13:48.468Z,12.50
2023-03-30T19:16:18.836Z,12.50
2023-03-30T19:18:49.497Z,12.50
2023-03-30T19:21:18.899Z,12.50
2023-03-30T19:23:47.241Z,12.40
2023-03-30T19:26:17.346Z,12.40
2023-03-30T19:28:45.835Z,12.30
2023-03-30T19:31:16.342Z,12.30
2023-03-30T19:33:44.895Z,12.30
2023-03-30T19:36:13.337Z,12.20
2023-03-30T19:38:44.245Z,12.20
2023-03-30T19:41:12.851Z,12.20
2023-03-30T19:43:42.683Z,12.20
2023-03-30T19:46:11.129Z,12.20
2023-03-30T19:48:39.623Z,12.20
2023-03-30T19:51:08.333Z,12.20
2023-03-30T19:53:37.303Z,12.10
2023-03-30T19:56:11.552Z,12.10
2023-03-30T19:58:40.158Z,12.10
2023-03-30T20:01:10.530Z,12.10
2023-03-30T20:03:39.078Z,12.00
2023-03-30T20:06:11.199Z,12.00
2023-03-30T20:08:39.795Z,12.00
2023-03-30T20:11:08.970Z,12.00
2023-03-30T20:13:37.955Z,12.00
2023-03-30T20:16:06.459Z,11.90
2023-03-30T20:18:36.169Z,11.90
2023-03-30T20:21:04.902Z,11.90
2023-03-30T20:23:33.408Z,11.80
2023-03-30T20:26:04.573Z,11.80
2023-03-30T20:28:32.973Z,11.80
2023-03-30T20:31:01.988Z,11.90
2023-03-30T20:33:30.839Z,11.90
2023-03-30T20:36:00.991Z,11.90
2023-03-30T20:38:29.427Z,11.90
2023-03-30T20:40:59.366Z,11.90
2023-03-30T20:43:27.687Z,11.90
2023-03-30T20:46:02.576Z,11.90
2023-03-30T20:48:33.834Z,11.90
2023-03-30T20:51:04.180Z,11.90
2023-03-30T20:53:33.002Z,11.90
2023-03-30T20:56:02.202Z,12.00
2023-03-30T20:58:30.726Z,12.00
2023-03-30T21:00:59.634Z,12.10
2023-03-30T21:03:29.471Z,12.10
2023-03-30T21:06:03.893Z,12.20
2023-03-30T21:08:34.750Z,12.20
2023-03-30T21:11:03.812Z,12.30
2023-03-30T21:13:32.371Z,12.30
2023-03-30T21:16:02.108Z,12.30
2023-03-30T21:18:31.088Z,12.40
2023-03-30T21:20:59.617Z,12.40
2023-03-30T21:23:29.996Z,12.50
2023-03-30T21:26:02.901Z,12.50
2023-03-30T21:28:32.268Z,12.50
2023-03-30T21:31:01.386Z,12.40
2023-03-30T21:33:30.684Z,12.40
2023-03-30T21:36:00.848Z,12.30
2023-03-30T21:38:32.155Z,12.20
2023-03-30T21:41:02.728Z,12.20
2023-03-30T21:43:32.879Z,12.10
2023-03-30T21:46:02.753Z,12.10
2023-03-30T21:48:32.733Z,12.00
2023-03-30T21:51:02.346Z,12.00
2023-03-30T21:53:32.621Z,12.00
2023-03-30T21:56:01.984Z,12.00
2023-03-30T21:58:30.985Z,11.90
2023-03-30T22:01:11.173Z,11.90
2023-03-30T22:03:41.464Z,11.90
2023-03-30T22:06:12.933Z,11.80
2023-03-30T22:08:42.916Z,11.80
2023-03-30T22:11:14.479Z,11.80
2023-03-30T22:13:42.665Z,11.70
2023-03-30T22:16:14.077Z,11.70
2023-03-30T22:18:42.780Z,11.70
2023-03-30T22:21:14.774Z,11.70
2023-03-30T22:23:44.545Z,11.60
2023-03-30T22:26:13.150Z,11.60
2023-03-30T22:28:45.166Z,11.60
2023-03-30T22:31:15.468Z,11.60
2023-03-30T22:33:44.348Z,11.50
2023-03-30T22:36:19.491Z,11.50
2023-03-30T22:38:51.311Z,11.50
2023-03-30T22:41:24.514Z,11.50
2023-03-30T22:43:53.517Z,11.50
2023-03-30T22:46:22.993Z,11.50
2023-03-30T22:48:51.895Z,11.50
2023-03-30T22:51:23.734Z,11.50
2023-03-30T22:53:53.969Z,11.40
2023-03-30T22:56:22.209Z,11.40
2023-03-30T22:58:50.448Z,11.40
2023-03-30T23:01:19.800Z,11.30
2023-03-30T23:03:48.636Z,11.30
2023-03-30T23:06:19.292Z,11.30
2023-03-30T23:08:49.076Z,11.30
2023-03-30T23:11:21.630Z,11.20
2023-03-30T23:13:49.966Z,11.20
2023-03-30T23:16:18.408Z,11.10
2023-03-30T23:18:46.610Z,11.10
2023-03-30T23:21:15.081Z,11.10
2023-03-30T23:23:43.529Z,11.10
2023-03-30T23:26:12.919Z,11.10
2023-03-30T23:28:43.833Z,11.10
2023-03-30T23:31:14.427Z,11.10
2023-03-30T23:33:43.553Z,11.10
2023-03-30T23:36:13.942Z,11.10
2023-03-30T23:38:42.498Z,11.00
2023-03-30T23:41:13.717Z,11.00
2023-03-30T23:43:43.620Z,10.90
2023-03-30T23:46:12.232Z,10.90
2023-03-30T23:48:40.780Z,10.90
2023-03-30T23:51:10.265Z,10.80
2023-03-30T23:53:40.505Z,10.80
2023-03-30T23:56:13.200Z,10.70
2023-03-30T23:58:43.195Z,10.60
